createdAt,value
2019-01-13T00:00:11.509Z,1003.51
2019-01-13T00:01:04.811Z,1003.50
2019-01-13T00:02:04.891Z,1003.51
2019-01-13T00:03:04.919Z,1003.47
2019-01-13T00:04:04.996Z,1003.49
2019-01-13T00:05:04.975Z,1003.46
2019-01-13T00:06:05.115Z,1003.48
2019-01-13T00:07:05.151Z,1003.45
2019-01-13T00:08:05.191Z,1003.49
2019-01-13T00:09:05.215Z,1003.50
2019-01-13T00:10:05.311Z,1003.54
2019-01-13T00:11:05.286Z,1003.59
2019-01-13T00:12:05.411Z,1003.59
2019-01-13T00:13:05.454Z,1003.60
2019-01-13T00:14:05.511Z,1003.59
2019-01-13T00:15:05.495Z,1003.58
2019-01-13T00:16:05.608Z,1003.57
2019-01-13T00:17:05.696Z,1003.58
2019-01-13T00:18:05.654Z,1003.59
2019-01-13T00:19:05.777Z,1003.59
2019-01-13T00:20:05.792Z,1003.60
2019-01-13T00:21:05.871Z,1003.62
2019-01-13T00:22:05.971Z,1003.63
2019-01-13T00:23:05.961Z,1003.61
2019-01-13T00:24:06.029Z,1003.62
2019-01-13T00:25:06.016Z,1003.65
2019-01-13T00:26:06.144Z,1003.70
2019-01-13T00:27:06.114Z,1003.71
2019-01-13T00:28:06.215Z,1003.69
2019-01-13T00:29:06.238Z,1003.73
2019-01-13T00:30:06.297Z,1003.71
2019-01-13T00:31:06.351Z,1003.72
2019-01-13T00:32:06.458Z,1003.71
2019-01-13T00:33:06.447Z,1003.72
2019-01-13T00:34:06.477Z,1003.67
2019-01-13T00:35:06.549Z,1003.65
2019-01-13T00:36:06.599Z,1003.65
2019-01-13T00:37:06.663Z,1003.65
2019-01-13T00:38:06.748Z,1003.66
2019-01-13T00:39:06.796Z,1003.65
2019-01-13T00:40:06.786Z,1003.61
2019-01-13T00:41:06.849Z,1003.60
2019-01-13T00:42:06.942Z,1003.58
2019-01-13T00:43:07.007Z,1003.56
2019-01-13T00:44:07.052Z,1003.56
2019-01-13T00:45:07.094Z,1003.56
2019-01-13T00:46:07.177Z,1003.56
2019-01-13T00:47:07.170Z,1003.60
2019-01-13T00:48:07.266Z,1003.59
2019-01-13T00:49:07.272Z,1003.54
2019-01-13T00:50:07.332Z,1003.55
2019-01-13T00:51:07.388Z,1003.54
2019-01-13T00:52:07.461Z,1003.52
2019-01-13T00:53:07.518Z,1003.52
2019-01-13T00:54:07.587Z,1003.55
2019-01-13T00:55:07.625Z,1003.53
2019-01-13T00:56:07.623Z,1003.51
2019-01-13T00:57:07.749Z,1003.48
2019-01-13T00:58:07.845Z,1003.47
2019-01-13T00:59:07.862Z,1003.50
2019-01-13T01:00:07.837Z,1003.52
2019-01-13T01:01:07.934Z,1003.55
2019-01-13T01:02:07.970Z,1003.52
2019-01-13T01:03:08.053Z,1003.58
2019-01-13T01:04:08.110Z,1003.57
2019-01-13T01:05:08.124Z,1003.55
2019-01-13T01:06:08.203Z,1003.55
2019-01-13T01:07:08.235Z,1003.58
2019-01-13T01:08:08.356Z,1003.59
2019-01-13T01:09:08.320Z,1003.59
2019-01-13T01:10:08.379Z,1003.57
2019-01-13T01:11:08.452Z,1003.56
2019-01-13T01:12:08.489Z,1003.60
2019-01-13T01:13:08.520Z,1003.65
2019-01-13T01:14:08.587Z,1003.67
2019-01-13T01:15:08.662Z,1003.69
2019-01-13T01:16:08.730Z,1003.67
2019-01-13T01:17:08.786Z,1003.65
2019-01-13T01:18:08.822Z,1003.64
2019-01-13T01:19:08.947Z,1003.69
2019-01-13T01:20:08.867Z,1003.62
2019-01-13T01:21:08.941Z,1003.61
2019-01-13T01:22:08.969Z,1003.63
2019-01-13T01:23:09.020Z,1003.65
2019-01-13T01:24:09.072Z,1003.67
2019-01-13T01:25:09.124Z,1003.65
2019-01-13T01:26:09.216Z,1003.58
2019-01-13T01:27:09.229Z,1003.60
2019-01-13T01:28:09.282Z,1003.62
2019-01-13T01:29:09.414Z,1003.62
2019-01-13T01:30:09.431Z,1003.65
2019-01-13T01:31:09.476Z,1003.60
2019-01-13T01:32:09.514Z,1003.59
2019-01-13T01:33:09.607Z,1003.57
2019-01-13T01:34:09.634Z,1003.54
2019-01-13T01:35:09.646Z,1003.50
2019-01-13T01:36:09.739Z,1003.56
2019-01-13T01:37:09.769Z,1003.53
2019-01-13T01:38:09.799Z,1003.52
2019-01-13T01:39:09.852Z,1003.48
2019-01-13T01:40:09.902Z,1003.49
2019-01-13T01:41:09.978Z,1003.48
2019-01-13T01:42:10.092Z,1003.46
2019-01-13T01:43:10.060Z,1003.46
2019-01-13T01:44:10.113Z,1003.46
2019-01-13T01:45:10.206Z,1003.42
2019-01-13T01:46:10.214Z,1003.45
2019-01-13T01:47:10.267Z,1003.46
2019-01-13T01:48:10.318Z,1003.44
2019-01-13T01:49:10.372Z,1003.47
2019-01-13T01:50:10.425Z,1003.41
2019-01-13T01:51:10.475Z,1003.43
2019-01-13T01:52:10.527Z,1003.35
2019-01-13T01:53:10.579Z,1003.34
2019-01-13T01:54:10.633Z,1003.32
2019-01-13T01:55:10.685Z,1003.32
2019-01-13T01:56:10.736Z,1003.31
2019-01-13T01:57:10.788Z,1003.32
2019-01-13T01:58:10.840Z,1003.29
2019-01-13T01:59:10.890Z,1003.28
2019-01-13T02:00:10.945Z,1003.23
2019-01-13T02:01:10.995Z,1003.23
2019-01-13T02:02:11.048Z,1003.26
2019-01-13T02:03:11.100Z,1003.23
2019-01-13T02:04:11.162Z,1003.25
2019-01-13T02:05:11.203Z,1003.21
2019-01-13T02:06:11.256Z,1003.19
2019-01-13T02:07:11.310Z,1003.18
2019-01-13T02:08:11.359Z,1003.23
2019-01-13T02:09:11.411Z,1003.20
2019-01-13T02:10:11.463Z,1003.22
2019-01-13T02:11:11.516Z,1003.23
2019-01-13T02:12:11.567Z,1003.32
2019-01-13T02:13:11.620Z,1003.33
2019-01-13T02:14:11.687Z,1003.29
2019-01-13T02:15:11.724Z,1003.31
2019-01-13T02:16:11.775Z,1003.29
2019-01-13T02:17:11.827Z,1003.32
2019-01-13T02:18:11.879Z,1003.32
2019-01-13T02:19:11.949Z,1003.30
2019-01-13T02:20:12.000Z,1003.29
2019-01-13T02:21:12.035Z,1003.26
2019-01-13T02:22:12.088Z,1003.29
2019-01-13T02:23:12.151Z,1003.27
2019-01-13T02:24:12.191Z,1003.26
2019-01-13T02:25:12.244Z,1003.30
2019-01-13T02:26:12.294Z,1003.27
2019-01-13T02:27:12.346Z,1003.22
2019-01-13T02:28:12.398Z,1003.21
2019-01-13T02:29:12.456Z,1003.16
2019-01-13T02:30:12.504Z,1003.10
2019-01-13T02:31:12.559Z,1003.09
2019-01-13T02:32:12.608Z,1003.06
2019-01-13T02:33:12.661Z,1003.09
2019-01-13T02:34:12.717Z,1003.07
2019-01-13T02:35:12.765Z,1003.11
2019-01-13T02:36:12.817Z,1003.14
2019-01-13T02:37:12.876Z,1003.15
2019-01-13T02:38:12.921Z,1003.12
2019-01-13T02:39:12.973Z,1003.08
2019-01-13T02:40:13.024Z,1003.11
2019-01-13T02:41:13.078Z,1003.08
2019-01-13T02:42:13.129Z,1003.11
2019-01-13T02:43:13.193Z,1003.10
2019-01-13T02:44:13.233Z,1003.05
2019-01-13T02:45:13.287Z,1003.08
2019-01-13T02:46:13.338Z,1003.08
2019-01-13T02:47:13.394Z,1003.08
2019-01-13T02:48:13.443Z,1003.06
2019-01-13T02:49:13.498Z,1003.07
2019-01-13T02:50:13.547Z,1003.04
2019-01-13T02:51:13.600Z,1003.03
2019-01-13T02:52:13.651Z,1002.98
2019-01-13T02:53:13.703Z,1002.95
2019-01-13T02:54:13.755Z,1002.97
2019-01-13T02:55:13.809Z,1002.94
2019-01-13T02:56:13.860Z,1002.93
2019-01-13T02:57:13.914Z,1002.84
2019-01-13T02:58:13.967Z,1002.87
2019-01-13T02:59:14.018Z,1002.80
2019-01-13T03:00:14.070Z,1002.73
2019-01-13T03:01:14.122Z,1002.77
2019-01-13T03:02:14.173Z,1002.76
2019-01-13T03:03:14.228Z,1002.73
2019-01-13T03:04:14.279Z,1002.75
2019-01-13T03:05:14.331Z,1002.71
2019-01-13T03:06:14.384Z,1002.69
2019-01-13T03:07:14.435Z,1002.73
2019-01-13T03:08:14.493Z,1002.73
2019-01-13T03:09:14.540Z,1002.74
2019-01-13T03:10:14.595Z,1002.79
2019-01-13T03:11:14.646Z,1002.76
2019-01-13T03:12:14.696Z,1002.79
2019-01-13T03:13:14.750Z,1002.78
2019-01-13T03:14:14.806Z,1002.72
2019-01-13T03:15:19.363Z,1002.76
2019-01-13T03:16:14.906Z,1002.75
2019-01-13T03:17:14.958Z,1002.75
2019-01-13T03:18:15.011Z,1002.71
2019-01-13T03:19:15.065Z,1002.69
2019-01-13T03:20:15.116Z,1002.68
2019-01-13T03:21:15.169Z,1002.65
2019-01-13T03:22:15.219Z,1002.63
2019-01-13T03:23:15.272Z,1002.61
2019-01-13T03:24:15.325Z,1002.61
2019-01-13T03:25:15.377Z,1002.61
2019-01-13T03:26:15.430Z,1002.60
2019-01-13T03:27:15.482Z,1002.55
2019-01-13T03:28:15.540Z,1002.54
2019-01-13T03:29:15.586Z,1002.51
2019-01-13T03:30:15.639Z,1002.51
2019-01-13T03:31:15.692Z,1002.51
2019-01-13T03:32:15.746Z,1002.56
2019-01-13T03:33:15.797Z,1002.49
2019-01-13T03:34:15.847Z,1002.56
2019-01-13T03:35:15.903Z,1002.51
2019-01-13T03:36:15.952Z,1002.51
2019-01-13T03:37:16.004Z,1002.49
2019-01-13T03:38:16.055Z,1002.49
2019-01-13T03:39:16.108Z,1002.52
2019-01-13T03:40:16.161Z,1002.51
2019-01-13T03:41:16.212Z,1002.51
2019-01-13T03:42:16.268Z,1002.51
2019-01-13T03:43:16.324Z,1002.52
2019-01-13T03:44:16.370Z,1002.57
2019-01-13T03:45:16.422Z,1002.60
2019-01-13T03:46:16.475Z,1002.64
2019-01-13T03:47:16.528Z,1002.65
2019-01-13T03:48:16.578Z,1002.69
2019-01-13T03:49:16.631Z,1002.72
2019-01-13T03:50:16.685Z,1002.70
2019-01-13T03:51:16.736Z,1002.72
2019-01-13T03:52:16.798Z,1002.67
2019-01-13T03:53:16.841Z,1002.64
2019-01-13T03:54:16.894Z,1002.61
2019-01-13T03:55:16.948Z,1002.58
2019-01-13T03:56:16.998Z,1002.56
2019-01-13T03:57:17.052Z,1002.52
2019-01-13T03:58:17.105Z,1002.50
2019-01-13T03:59:17.157Z,1002.47
2019-01-13T04:00:17.210Z,1002.45
2019-01-13T04:01:18.649Z,1002.44
2019-01-13T04:02:17.312Z,1002.42
2019-01-13T04:03:17.366Z,1002.42
2019-01-13T04:04:17.421Z,1002.38
2019-01-13T04:05:17.472Z,1002.38
2019-01-13T04:06:17.522Z,1002.40
2019-01-13T04:07:17.576Z,1002.42
2019-01-13T04:08:17.628Z,1002.39
2019-01-13T04:09:17.680Z,1002.39
2019-01-13T04:10:17.733Z,1002.39
2019-01-13T04:11:17.785Z,1002.38
2019-01-13T04:12:17.837Z,1002.39
2019-01-13T04:13:17.889Z,1002.38
2019-01-13T04:14:17.943Z,1002.38
2019-01-13T04:15:18.000Z,1002.42
2019-01-13T04:16:18.047Z,1002.42
2019-01-13T04:17:18.099Z,1002.43
2019-01-13T04:18:18.152Z,1002.37
2019-01-13T04:19:18.214Z,1002.37
2019-01-13T04:20:18.262Z,1002.34
2019-01-13T04:21:18.311Z,1002.33
2019-01-13T04:22:18.363Z,1002.34
2019-01-13T04:23:18.417Z,1002.30
2019-01-13T04:24:18.468Z,1002.33
2019-01-13T04:25:18.523Z,1002.34
2019-01-13T04:26:18.573Z,1002.27
2019-01-13T04:27:18.626Z,1002.32
2019-01-13T04:28:18.678Z,1002.27
2019-01-13T04:29:18.734Z,1002.27
2019-01-13T04:30:18.784Z,1002.28
2019-01-13T04:31:26.350Z,1002.25
2019-01-13T04:32:18.888Z,1002.21
2019-01-13T04:33:18.941Z,1002.14
2019-01-13T04:34:18.993Z,1002.08
2019-01-13T04:35:19.047Z,1002.01
2019-01-13T04:36:19.099Z,1002.02
2019-01-13T04:37:19.150Z,1001.99
2019-01-13T04:38:19.204Z,1001.95
2019-01-13T04:39:19.257Z,1001.94
2019-01-13T04:40:19.313Z,1001.89
2019-01-13T04:41:19.361Z,1001.89
2019-01-13T04:42:19.416Z,1001.82
2019-01-13T04:43:19.467Z,1001.76
2019-01-13T04:44:20.066Z,1001.75
2019-01-13T04:45:20.206Z,1001.63
2019-01-13T04:46:20.125Z,1001.61
2019-01-13T04:47:19.678Z,1001.57
2019-01-13T04:48:19.729Z,1001.58
2019-01-13T04:49:19.781Z,1001.52
2019-01-13T04:50:19.835Z,1001.53
2019-01-13T04:51:19.891Z,1001.53
2019-01-13T04:52:19.939Z,1001.56
2019-01-13T04:53:19.991Z,1001.57
2019-01-13T04:54:20.045Z,1001.55
2019-01-13T04:55:20.098Z,1001.56
2019-01-13T04:56:20.149Z,1001.53
2019-01-13T04:57:20.203Z,1001.46
2019-01-13T04:58:20.255Z,1001.48
2019-01-13T04:59:20.307Z,1001.46
2019-01-13T05:00:20.390Z,1001.45
2019-01-13T05:01:20.447Z,1001.46
2019-01-13T05:02:20.474Z,1001.41
2019-01-13T05:03:20.520Z,1001.46
2019-01-13T05:04:20.571Z,1001.45
2019-01-13T05:05:20.622Z,1001.42
2019-01-13T05:06:20.677Z,1001.46
2019-01-13T05:07:20.729Z,1001.45
2019-01-13T05:08:20.779Z,1001.38
2019-01-13T05:09:20.833Z,1001.34
2019-01-13T05:10:20.915Z,1001.29
2019-01-13T05:11:20.941Z,1001.33
2019-01-13T05:12:20.995Z,1001.30
2019-01-13T05:13:21.045Z,1001.29
2019-01-13T05:14:21.098Z,1001.31
2019-01-13T05:15:21.639Z,1001.32
2019-01-13T05:16:21.208Z,1001.26
2019-01-13T05:17:21.260Z,1001.24
2019-01-13T05:18:21.310Z,1001.24
2019-01-13T05:19:21.365Z,1001.25
2019-01-13T05:20:21.414Z,1001.26
2019-01-13T05:21:21.469Z,1001.24
2019-01-13T05:22:21.520Z,1001.22
2019-01-13T05:23:21.574Z,1001.14
2019-01-13T05:24:21.626Z,1001.14
2019-01-13T05:25:21.678Z,1001.04
2019-01-13T05:26:21.734Z,1001.00
2019-01-13T05:27:21.788Z,1001.02
2019-01-13T05:28:21.839Z,1001.01
2019-01-13T05:29:21.890Z,1001.01
2019-01-13T05:30:21.945Z,1000.99
2019-01-13T05:31:21.996Z,1000.98
2019-01-13T05:32:22.048Z,1001.01
2019-01-13T05:33:22.103Z,1000.97
2019-01-13T05:34:22.157Z,1000.93
2019-01-13T05:35:22.210Z,1000.92
2019-01-13T05:36:22.260Z,1000.91
2019-01-13T05:37:22.314Z,1000.92
2019-01-13T05:38:22.370Z,1000.89
2019-01-13T05:39:22.420Z,1000.91
2019-01-13T05:40:22.472Z,1000.90
2019-01-13T05:41:22.526Z,1000.86
2019-01-13T05:42:22.580Z,1000.82
2019-01-13T05:43:22.634Z,1000.75
2019-01-13T05:44:22.687Z,1000.73
2019-01-13T05:45:22.737Z,1000.69
2019-01-13T05:46:22.793Z,1000.64
2019-01-13T05:47:22.843Z,1000.67
2019-01-13T05:48:22.896Z,1000.69
2019-01-13T05:49:22.949Z,1000.68
2019-01-13T05:50:23.004Z,1000.71
2019-01-13T05:51:23.055Z,1000.68
2019-01-13T05:52:23.107Z,1000.67
2019-01-13T05:53:23.161Z,1000.63
2019-01-13T05:54:23.214Z,1000.57
2019-01-13T05:55:23.267Z,1000.58
2019-01-13T05:56:23.319Z,1000.51
2019-01-13T05:57:23.374Z,1000.47
2019-01-13T05:58:23.426Z,1000.42
2019-01-13T05:59:23.480Z,1000.37
2019-01-13T06:00:23.533Z,1000.34
2019-01-13T06:01:23.585Z,1000.28
2019-01-13T06:02:23.639Z,1000.27
2019-01-13T06:03:23.696Z,1000.25
2019-01-13T06:04:23.744Z,1000.26
2019-01-13T06:05:23.800Z,1000.30
2019-01-13T06:06:23.852Z,1000.29
2019-01-13T06:07:23.907Z,1000.29
2019-01-13T06:08:23.959Z,1000.26
2019-01-13T06:09:24.010Z,1000.25
2019-01-13T06:10:24.065Z,1000.25
2019-01-13T06:11:24.118Z,1000.27
2019-01-13T06:12:24.178Z,1000.26
2019-01-13T06:13:24.222Z,1000.24
2019-01-13T06:14:24.276Z,1000.28
2019-01-13T06:15:24.329Z,1000.22
2019-01-13T06:16:24.395Z,1000.16
2019-01-13T06:17:24.437Z,1000.19
2019-01-13T06:18:24.490Z,1000.14
2019-01-13T06:19:24.542Z,1000.09
2019-01-13T06:20:24.594Z,1000.11
2019-01-13T06:21:24.650Z,1000.07
2019-01-13T06:22:24.703Z,1000.06
2019-01-13T06:23:24.756Z,1000.04
2019-01-13T06:24:24.812Z,1000.03
2019-01-13T06:25:24.863Z,1000.01
2019-01-13T06:26:24.916Z,999.96
2019-01-13T06:27:24.986Z,999.90
2019-01-13T06:28:25.022Z,999.83
2019-01-13T06:29:25.075Z,999.80
2019-01-13T06:30:25.128Z,999.75
2019-01-13T06:31:25.188Z,999.75
2019-01-13T06:32:25.235Z,999.70
2019-01-13T06:33:25.288Z,999.79
2019-01-13T06:34:25.343Z,999.80
2019-01-13T06:35:25.395Z,999.83
2019-01-13T06:36:25.448Z,999.75
2019-01-13T06:37:25.500Z,999.81
2019-01-13T06:38:25.555Z,999.76
2019-01-13T06:39:25.610Z,999.78
2019-01-13T06:40:25.664Z,999.77
2019-01-13T06:41:25.714Z,999.79
2019-01-13T06:42:25.767Z,999.81
2019-01-13T06:43:25.856Z,999.82
2019-01-13T06:44:25.873Z,999.78
2019-01-13T06:45:25.927Z,999.71
2019-01-13T06:46:25.979Z,999.77
2019-01-13T06:47:26.038Z,999.75
2019-01-13T06:48:26.093Z,999.78
2019-01-13T06:49:26.140Z,999.76
2019-01-13T06:50:26.194Z,999.72
2019-01-13T06:51:26.247Z,999.80
2019-01-13T06:52:26.299Z,999.82
2019-01-13T06:53:26.353Z,999.81
2019-01-13T06:54:26.407Z,999.83
2019-01-13T06:55:26.464Z,999.83
2019-01-13T06:56:26.512Z,999.85
2019-01-13T06:57:26.567Z,999.91
2019-01-13T06:58:26.619Z,999.92
2019-01-13T06:59:26.675Z,999.92
2019-01-13T07:00:26.728Z,999.93
2019-01-13T07:01:26.779Z,999.94
2019-01-13T07:02:26.833Z,999.87
2019-01-13T07:03:26.909Z,999.88
2019-01-13T07:04:26.938Z,999.89
2019-01-13T07:05:26.993Z,999.91
2019-01-13T07:06:27.045Z,999.94
2019-01-13T07:07:27.100Z,999.95
2019-01-13T07:08:27.153Z,999.97
2019-01-13T07:09:27.206Z,999.96
2019-01-13T07:10:27.265Z,999.87
2019-01-13T07:11:27.313Z,999.86
2019-01-13T07:12:27.366Z,999.89
2019-01-13T07:13:27.419Z,999.89
2019-01-13T07:14:28.060Z,999.89
2019-01-13T07:15:27.526Z,999.88
2019-01-13T07:16:27.579Z,999.92
2019-01-13T07:17:27.632Z,999.92
2019-01-13T07:18:27.685Z,999.91
2019-01-13T07:19:27.739Z,999.93
2019-01-13T07:20:27.792Z,999.88
2019-01-13T07:21:27.845Z,999.89
2019-01-13T07:22:27.898Z,999.90
2019-01-13T07:23:27.954Z,999.90
2019-01-13T07:24:28.005Z,999.89
2019-01-13T07:25:28.057Z,999.87
2019-01-13T07:26:28.111Z,999.87
2019-01-13T07:27:28.166Z,999.92
2019-01-13T07:28:28.217Z,999.92
2019-01-13T07:29:28.270Z,999.92
2019-01-13T07:30:28.323Z,999.95
2019-01-13T07:31:28.378Z,999.96
2019-01-13T07:32:28.429Z,999.97
2019-01-13T07:33:28.483Z,1000.01
2019-01-13T07:34:28.536Z,1000.01
2019-01-13T07:35:28.589Z,999.99
2019-01-13T07:36:28.643Z,999.95
2019-01-13T07:37:28.695Z,999.97
2019-01-13T07:38:28.750Z,999.97
2019-01-13T07:39:28.803Z,999.96
2019-01-13T07:40:28.856Z,999.98
2019-01-13T07:41:28.910Z,1000.02
2019-01-13T07:42:28.962Z,1000.01
2019-01-13T07:43:29.015Z,1000.10
2019-01-13T07:44:29.068Z,1000.15
2019-01-13T07:45:29.122Z,1000.15
2019-01-13T07:46:29.175Z,1000.15
2019-01-13T07:47:29.228Z,1000.09
2019-01-13T07:48:29.286Z,1000.11
2019-01-13T07:49:29.333Z,1000.11
2019-01-13T07:50:29.391Z,1000.11
2019-01-13T07:51:29.441Z,1000.08
2019-01-13T07:52:29.494Z,1000.07
2019-01-13T07:53:29.548Z,1000.08
2019-01-13T07:54:29.602Z,1000.03
2019-01-13T07:55:29.655Z,1000.01
2019-01-13T07:56:29.706Z,1000.01
2019-01-13T07:57:29.759Z,999.99
2019-01-13T07:58:29.816Z,1000.00
2019-01-13T07:59:29.871Z,999.96
2019-01-13T08:00:29.920Z,999.96
2019-01-13T08:01:29.973Z,999.96
2019-01-13T08:02:30.027Z,999.97
2019-01-13T08:03:30.084Z,999.98
2019-01-13T08:04:30.134Z,999.97
2019-01-13T08:05:30.188Z,999.97
2019-01-13T08:06:30.240Z,999.95
2019-01-13T08:07:30.294Z,999.95
2019-01-13T08:08:30.348Z,999.87
2019-01-13T08:09:30.401Z,999.81
2019-01-13T08:10:30.452Z,999.83
2019-01-13T08:11:30.507Z,999.83
2019-01-13T08:12:30.566Z,999.83
2019-01-13T08:13:30.611Z,999.79
2019-01-13T08:14:30.667Z,999.77
2019-01-13T08:15:30.721Z,999.76
2019-01-13T08:16:30.774Z,999.77
2019-01-13T08:17:30.826Z,999.80
2019-01-13T08:18:30.880Z,999.78
2019-01-13T08:19:30.933Z,999.80
2019-01-13T08:20:30.985Z,999.74
2019-01-13T08:21:31.039Z,999.75
2019-01-13T08:22:31.094Z,999.71
2019-01-13T08:23:31.146Z,999.70
2019-01-13T08:24:31.199Z,999.74
2019-01-13T08:25:31.252Z,999.76
2019-01-13T08:26:31.307Z,999.84
2019-01-13T08:27:31.360Z,999.82
2019-01-13T08:28:31.412Z,999.85
2019-01-13T08:29:32.749Z,999.81
2019-01-13T08:30:31.522Z,999.81
2019-01-13T08:31:31.574Z,999.83
2019-01-13T08:32:31.627Z,999.81
2019-01-13T08:33:31.679Z,999.81
2019-01-13T08:34:31.733Z,999.78
2019-01-13T08:35:31.787Z,999.78
2019-01-13T08:36:31.840Z,999.75
2019-01-13T08:37:31.893Z,999.78
2019-01-13T08:38:31.947Z,999.78
2019-01-13T08:39:32.000Z,999.77
2019-01-13T08:40:32.052Z,999.75
2019-01-13T08:41:32.106Z,999.70
2019-01-13T08:42:32.161Z,999.72
2019-01-13T08:43:32.214Z,999.76
2019-01-13T08:44:32.266Z,999.75
2019-01-13T08:45:32.321Z,999.75
2019-01-13T08:46:32.374Z,999.69
2019-01-13T08:47:32.428Z,999.62
2019-01-13T08:48:32.481Z,999.60
2019-01-13T08:49:32.535Z,999.62
2019-01-13T08:50:32.588Z,999.57
2019-01-13T08:51:32.642Z,999.55
2019-01-13T08:52:32.694Z,999.44
2019-01-13T08:53:32.747Z,999.48
2019-01-13T08:54:32.801Z,999.43
2019-01-13T08:55:32.854Z,999.45
2019-01-13T08:56:32.908Z,999.42
2019-01-13T08:57:32.962Z,999.38
2019-01-13T08:58:33.015Z,999.35
2019-01-13T08:59:33.074Z,999.32
2019-01-13T09:00:33.121Z,999.34
2019-01-13T09:01:33.175Z,999.28
2019-01-13T09:02:33.740Z,999.29
2019-01-13T09:03:33.283Z,999.29
2019-01-13T09:04:33.336Z,999.24
2019-01-13T09:05:33.390Z,999.23
2019-01-13T09:06:33.443Z,999.23
2019-01-13T09:07:33.497Z,999.23
2019-01-13T09:08:33.549Z,999.21
2019-01-13T09:09:33.603Z,999.21
2019-01-13T09:10:33.657Z,999.17
2019-01-13T09:11:33.710Z,999.17
2019-01-13T09:12:33.764Z,999.19
2019-01-13T09:13:33.818Z,999.13
2019-01-13T09:14:33.872Z,999.11
2019-01-13T09:15:33.926Z,999.08
2019-01-13T09:16:33.978Z,998.97
2019-01-13T09:17:34.033Z,998.93
2019-01-13T09:18:34.085Z,998.93
2019-01-13T09:19:34.140Z,998.91
2019-01-13T09:20:34.194Z,998.93
2019-01-13T09:21:34.250Z,998.94
2019-01-13T09:22:34.302Z,998.92
2019-01-13T09:23:34.358Z,998.96
2019-01-13T09:24:34.408Z,998.93
2019-01-13T09:25:34.463Z,998.87
2019-01-13T09:26:34.517Z,998.96
2019-01-13T09:27:34.571Z,998.97
2019-01-13T09:28:34.623Z,998.93
2019-01-13T09:29:34.677Z,998.91
2019-01-13T09:30:34.731Z,998.93
2019-01-13T09:31:34.787Z,998.93
2019-01-13T09:32:39.414Z,998.89
2019-01-13T09:33:34.895Z,998.88
2019-01-13T09:34:34.949Z,998.86
2019-01-13T09:35:35.004Z,998.84
2019-01-13T09:36:35.055Z,998.87
2019-01-13T09:37:35.109Z,998.79
2019-01-13T09:38:35.163Z,998.78
2019-01-13T09:39:35.217Z,998.77
2019-01-13T09:40:35.271Z,998.79
2019-01-13T09:41:35.326Z,998.76
2019-01-13T09:42:35.390Z,998.75
2019-01-13T09:43:35.435Z,998.73
2019-01-13T09:44:35.489Z,998.76
2019-01-13T09:45:35.543Z,998.75
2019-01-13T09:46:35.597Z,998.74
2019-01-13T09:47:35.651Z,998.69
2019-01-13T09:48:35.707Z,998.63
2019-01-13T09:49:35.759Z,998.62
2019-01-13T09:50:35.813Z,998.68
2019-01-13T09:51:35.867Z,998.67
2019-01-13T09:52:35.922Z,998.70
2019-01-13T09:53:35.977Z,998.70
2019-01-13T09:54:36.031Z,998.72
2019-01-13T09:55:36.090Z,998.66
2019-01-13T09:56:36.142Z,998.69
2019-01-13T09:57:36.194Z,998.68
2019-01-13T09:58:37.741Z,998.60
2019-01-13T09:59:36.303Z,998.56
2019-01-13T10:00:36.377Z,998.55
2019-01-13T10:01:36.412Z,998.55
2019-01-13T10:02:36.467Z,998.55
2019-01-13T10:03:36.523Z,998.54
2019-01-13T10:04:36.575Z,998.58
2019-01-13T10:05:36.635Z,998.58
2019-01-13T10:06:36.687Z,998.58
2019-01-13T10:07:36.740Z,998.54
2019-01-13T10:08:36.800Z,998.48
2019-01-13T10:09:36.850Z,998.50
2019-01-13T10:10:36.904Z,998.48
2019-01-13T10:11:36.962Z,998.39
2019-01-13T10:12:37.016Z,998.45
2019-01-13T10:13:37.069Z,998.40
2019-01-13T10:14:37.123Z,998.35
2019-01-13T10:15:37.178Z,998.33
2019-01-13T10:16:37.235Z,998.24
2019-01-13T10:17:37.288Z,998.19
2019-01-13T10:18:37.342Z,998.12
2019-01-13T10:19:37.398Z,998.09
2019-01-13T10:20:37.603Z,998.02
2019-01-13T10:21:37.510Z,997.95
2019-01-13T10:22:37.561Z,997.97
2019-01-13T10:23:37.617Z,997.99
2019-01-13T10:24:37.670Z,998.09
2019-01-13T10:25:37.725Z,998.11
2019-01-13T10:26:37.783Z,998.09
2019-01-13T10:27:37.836Z,998.01
2019-01-13T10:28:37.891Z,998.01
2019-01-13T10:29:37.945Z,997.92
2019-01-13T10:30:38.001Z,997.92
2019-01-13T10:31:38.056Z,997.92
2019-01-13T10:32:38.111Z,997.88
2019-01-13T10:33:38.165Z,997.84
2019-01-13T10:34:38.220Z,997.84
2019-01-13T10:35:38.276Z,997.77
2019-01-13T10:36:38.329Z,997.74
2019-01-13T10:37:38.383Z,997.71
2019-01-13T10:38:38.439Z,997.67
2019-01-13T10:39:38.494Z,997.66
2019-01-13T10:40:38.550Z,997.63
2019-01-13T10:41:38.604Z,997.68
2019-01-13T10:42:38.659Z,997.72
2019-01-13T10:43:38.712Z,997.71
2019-01-13T10:44:38.768Z,997.79
2019-01-13T10:45:38.823Z,997.74
2019-01-13T10:46:38.877Z,997.84
2019-01-13T10:47:38.932Z,997.89
2019-01-13T10:48:38.989Z,997.91
2019-01-13T10:49:39.040Z,997.86
2019-01-13T10:50:39.096Z,997.85
2019-01-13T10:51:39.151Z,997.84
2019-01-13T10:52:39.204Z,997.83
2019-01-13T10:53:39.259Z,997.81
2019-01-13T10:54:39.315Z,997.87
2019-01-13T10:55:39.370Z,997.91
2019-01-13T10:56:39.423Z,997.90
2019-01-13T10:57:39.478Z,997.79
2019-01-13T10:58:39.533Z,997.83
2019-01-13T10:59:39.587Z,997.81
2019-01-13T11:00:39.643Z,997.82
2019-01-13T11:01:39.697Z,997.73
2019-01-13T11:02:40.294Z,997.64
2019-01-13T11:03:39.807Z,997.66
2019-01-13T11:04:39.861Z,997.74
2019-01-13T11:05:39.916Z,997.79
2019-01-13T11:06:40.262Z,997.86
2019-01-13T11:07:40.025Z,997.84
2019-01-13T11:08:40.081Z,997.78
2019-01-13T11:09:40.134Z,997.74
2019-01-13T11:10:40.191Z,997.59
2019-01-13T11:11:40.245Z,997.57
2019-01-13T11:12:40.313Z,997.56
2019-01-13T11:13:40.354Z,997.53
2019-01-13T11:14:40.407Z,997.51
2019-01-13T11:15:40.463Z,997.46
2019-01-13T11:16:40.517Z,997.45
2019-01-13T11:17:40.592Z,997.45
2019-01-13T11:18:40.625Z,997.43
2019-01-13T11:19:40.684Z,997.42
2019-01-13T11:20:40.735Z,997.41
2019-01-13T11:21:40.790Z,997.48
2019-01-13T11:22:40.845Z,997.49
2019-01-13T11:23:40.898Z,997.49
2019-01-13T11:24:40.954Z,997.45
2019-01-13T11:25:41.034Z,997.47
2019-01-13T11:26:41.066Z,997.45
2019-01-13T11:27:41.125Z,997.39
2019-01-13T11:28:41.173Z,997.33
2019-01-13T11:29:41.228Z,997.29
2019-01-13T11:30:41.296Z,997.30
2019-01-13T11:31:41.338Z,997.33
2019-01-13T11:32:41.391Z,997.26
2019-01-13T11:33:41.455Z,997.22
2019-01-13T11:34:41.501Z,997.16
2019-01-13T11:35:41.556Z,997.17
2019-01-13T11:36:41.610Z,997.12
2019-01-13T11:37:41.666Z,997.06
2019-01-13T11:38:41.721Z,997.07
2019-01-13T11:39:41.775Z,996.94
2019-01-13T11:40:41.833Z,996.92
2019-01-13T11:41:41.884Z,996.95
2019-01-13T11:42:41.939Z,996.96
2019-01-13T11:43:41.996Z,996.85
2019-01-13T11:44:42.047Z,996.84
2019-01-13T11:45:42.104Z,996.86
2019-01-13T11:46:42.159Z,996.84
2019-01-13T11:47:42.215Z,996.73
2019-01-13T11:48:42.269Z,996.64
2019-01-13T11:49:42.324Z,996.62
2019-01-13T11:50:42.379Z,996.54
2019-01-13T11:51:42.434Z,996.66
2019-01-13T11:52:42.488Z,996.60
2019-01-13T11:53:42.543Z,996.51
2019-01-13T11:54:42.598Z,996.46
2019-01-13T11:55:42.653Z,996.42
2019-01-13T11:56:42.707Z,996.32
2019-01-13T11:57:42.765Z,996.32
2019-01-13T11:58:42.817Z,996.32
2019-01-13T11:59:42.875Z,996.36
2019-01-13T12:00:42.925Z,996.47
2019-01-13T12:01:42.981Z,996.46
2019-01-13T12:02:43.036Z,996.47
2019-01-13T12:03:43.093Z,996.51
2019-01-13T12:04:43.146Z,996.53
2019-01-13T12:05:43.203Z,996.46
2019-01-13T12:06:43.256Z,996.42
2019-01-13T12:07:43.312Z,996.50
2019-01-13T12:08:43.367Z,996.52
2019-01-13T12:09:43.422Z,996.61
2019-01-13T12:10:43.479Z,996.63
2019-01-13T12:11:43.531Z,996.64
2019-01-13T12:12:43.586Z,996.57
2019-01-13T12:13:43.641Z,996.46
2019-01-13T12:14:43.696Z,996.45
2019-01-13T12:15:43.754Z,996.41